Time;durP1;ratioP1;P1;durP2;ratioP2;P2;SDS_P1;SDS_P2;PMS_P1;PMS_P2;Temp;Humidity;BMP_temperature;BMP_pressure;BME280_temperature;BME280_humidity;BME280_pressure;Samples;Min_cycle;Max_cycle;Signal;HPM_P1;HPM_P2
2024/03/28 00:01:11;;;;;;;2.57;2.37;;;9.60;99.90;;;;;;5036202;28;20649;-62
2024/03/28 00:03:37;;;;;;;3.83;3.20;;;9.60;99.90;;;;;;5036489;28;20510;-61
2024/03/28 00:06:03;;;;;;;3.07;2.80;;;9.60;99.90;;;;;;5036836;28;20594;-62
2024/03/28 00:08:30;;;;;;;3.87;3.30;;;9.60;99.90;;;;;;5036912;28;20439;-62
2024/03/28 00:10:56;;;;;;;3.70;3.00;;;9.50;99.90;;;;;;5036458;28;20429;-62
2024/03/28 00:13:22;;;;;;;3.33;2.60;;;9.60;99.90;;;;;;5036448;28;20468;-61
2024/03/28 00:16:02;;;;;;;3.50;3.10;;;9.50;99.90;;;;;;5036864;28;20436;-62
2024/03/28 00:18:28;;;;;;;2.97;2.70;;;9.50;99.90;;;;;;5036298;28;20958;-62
2024/03/28 00:20:58;;;;;;;3.00;2.70;;;9.50;99.90;;;;;;5037133;28;20515;-62
2024/03/28 00:23:25;;;;;;;3.07;2.77;;;9.50;99.90;;;;;;5036560;28;20511;-61
2024/03/28 00:25:51;;;;;;;3.10;2.87;;;9.50;99.90;;;;;;5068829;28;20440;-61
2024/03/28 00:28:17;;;;;;;3.20;2.93;;;9.40;99.90;;;;;;5036418;28;20431;-62
2024/03/28 00:30:42;;;;;;;3.63;3.27;;;9.40;99.90;;;;;;5037247;28;20846;-61
2024/03/28 00:33:08;;;;;;;3.57;3.00;;;9.40;99.90;;;;;;5036851;28;20224;-61
2024/03/28 00:35:34;;;;;;;2.50;2.30;;;9.30;99.90;;;;;;5035734;28;20265;-62
2024/03/28 00:37:59;;;;;;;3.30;3.00;;;9.30;99.90;;;;;;5036317;28;20177;-62
2024/03/28 00:40:25;;;;;;;3.07;2.80;;;9.20;99.90;;;;;;5035994;28;20194;-62
2024/03/28 00:42:51;;;;;;;3.37;2.67;;;9.20;99.90;;;;;;5036650;28;20190;-62
2024/03/28 00:45:16;;;;;;;4.17;2.83;;;9.20;99.90;;;;;;5035607;28;20276;-62
2024/03/28 00:47:43;;;;;;;3.37;3.07;;;9.20;99.90;;;;;;5036489;28;20201;-62
2024/03/28 00:50:09;;;;;;;3.70;2.97;;;9.20;99.90;;;;;;5036289;28;20656;-62
2024/03/28 00:52:35;;;;;;;3.90;3.30;;;9.20;99.90;;;;;;5036457;28;20421;-62
2024/03/28 00:55:00;;;;;;;3.20;2.90;;;9.10;99.90;;;;;;5036101;28;20186;-62
2024/03/28 00:57:26;;;;;;;5.43;3.20;;;9.10;99.90;;;;;;5035522;28;21020;-62
2024/03/28 00:59:52;;;;;;;3.60;3.13;;;9.10;99.90;;;;;;5036632;28;20525;-60
2024/03/28 01:02:17;;;;;;;3.77;2.80;;;9.10;99.90;;;;;;5035395;28;20766;-62
2024/03/28 01:04:43;;;;;;;3.70;3.40;;;9.10;99.90;;;;;;5035268;28;20185;-62
2024/03/28 01:07:08;;;;;;;3.93;3.40;;;9.10;99.90;;;;;;5035649;28;20197;-62
2024/03/28 01:09:34;;;;;;;3.50;3.20;;;9.10;99.90;;;;;;5036014;28;20220;-62
2024/03/28 01:12:00;;;;;;;3.80;3.50;;;9.00;99.90;;;;;;5036561;28;20178;-62
2024/03/28 01:14:25;;;;;;;3.03;2.77;;;9.00;99.90;;;;;;5035373;28;20235;-62
2024/03/28 01:16:51;;;;;;;3.63;3.17;;;9.00;99.90;;;;;;5035914;28;20200;-62
2024/03/28 01:19:17;;;;;;;3.73;3.43;;;8.90;99.90;;;;;;5035371;28;20189;-62
2024/03/28 01:21:42;;;;;;;3.70;3.33;;;8.90;99.90;;;;;;5036307;28;20417;-62
2024/03/28 01:24:08;;;;;;;4.00;3.37;;;8.90;99.90;;;;;;5035344;28;20264;-61
2024/03/28 01:26:34;;;;;;;3.67;2.93;;;8.80;99.90;;;;;;5035771;28;20182;-62
2024/03/28 01:28:59;;;;;;;4.07;3.67;;;8.90;99.90;;;;;;5035893;28;20526;-62
2024/03/28 01:31:25;;;;;;;3.67;3.37;;;8.80;99.90;;;;;;5035626;28;20198;-61
2024/03/28 01:33:50;;;;;;;5.07;3.80;;;8.80;99.90;;;;;;5036581;28;20217;-61
2024/03/28 01:36:16;;;;;;;4.00;3.17;;;8.80;99.90;;;;;;5034812;28;20591;-61
2024/03/28 01:38:42;;;;;;;4.17;3.43;;;8.80;99.90;;;;;;5035929;28;20717;-61
2024/03/28 01:41:07;;;;;;;3.90;3.37;;;8.70;99.90;;;;;;5067157;28;20181;-62
2024/03/28 01:43:38;;;;;;;3.57;2.97;;;8.70;99.90;;;;;;5035346;28;20217;-62
2024/03/28 01:46:04;;;;;;;3.37;3.07;;;8.70;99.90;;;;;;5035412;28;20535;-62
2024/03/28 01:48:29;;;;;;;3.30;3.00;;;8.70;99.90;;;;;;5050478;28;20424;-62
2024/03/28 01:50:55;;;;;;;3.70;3.40;;;8.70;99.90;;;;;;5035628;28;20447;-62
2024/03/28 01:53:21;;;;;;;4.60;3.03;;;8.70;99.90;;;;;;5035364;28;20700;-62
2024/03/28 01:55:47;;;;;;;4.27;3.50;;;8.70;99.90;;;;;;5035193;28;20429;-61
2024/03/28 01:58:13;;;;;;;3.80;2.97;;;8.70;99.90;;;;;;5035146;28;20596;-62
2024/03/28 02:00:39;;;;;;;3.67;3.37;;;8.70;99.90;;;;;;5035044;28;20235;-62
2024/03/28 02:03:05;;;;;;;3.50;3.20;;;8.80;99.90;;;;;;5035129;28;20418;-62
2024/03/28 02:05:32;;;;;;;3.30;2.93;;;8.70;99.90;;;;;;5034975;28;20803;-62
2024/03/28 02:07:58;;;;;;;3.30;3.00;;;8.70;99.90;;;;;;5034999;28;20479;-62
2024/03/28 02:10:24;;;;;;;3.20;2.73;;;8.70;99.90;;;;;;5034973;28;20911;-62
2024/03/28 02:12:50;;;;;;;3.43;3.13;;;8.60;99.90;;;;;;5035688;28;20468;-62
2024/03/28 02:15:16;;;;;;;3.73;3.30;;;8.70;99.90;;;;;;5034980;28;20186;-62
2024/03/28 02:17:48;;;;;;;3.47;3.17;;;8.60;99.90;;;;;;5035512;28;20434;-62
2024/03/28 02:20:15;;;;;;;4.50;3.60;;;8.60;99.90;;;;;;5034786;28;20541;-62
2024/03/28 02:22:41;;;;;;;3.27;2.97;;;8.60;99.90;;;;;;5035494;28;20436;-62
2024/03/28 02:25:07;;;;;;;2.87;2.60;;;8.60;99.90;;;;;;5034643;28;20435;-61
2024/03/28 02:27:37;;;;;;;3.30;3.00;;;8.60;99.90;;;;;;5034725;28;20275;-62
2024/03/28 02:30:10;;;;;;;4.00;3.60;;;8.60;99.90;;;;;;5034919;28;20423;-62
2024/03/28 02:32:36;;;;;;;3.23;2.83;;;8.60;99.90;;;;;;5034668;28;20468;-62
2024/03/28 02:35:04;;;;;;;3.67;3.27;;;8.50;99.90;;;;;;5035465;28;21022;-61
2024/03/28 02:37:30;;;;;;;3.70;2.90;;;8.50;99.90;;;;;;5034573;28;20436;-62
2024/03/28 02:39:55;;;;;;;3.63;3.00;;;8.50;99.90;;;;;;5035054;28;20486;-62
2024/03/28 02:42:22;;;;;;;3.10;2.60;;;8.50;99.90;;;;;;5034592;28;20428;-62
2024/03/28 02:44:47;;;;;;;3.47;3.17;;;8.50;99.90;;;;;;5034971;28;20186;-62
2024/03/28 02:47:13;;;;;;;3.70;3.40;;;8.40;99.90;;;;;;5034463;28;20424;-62
2024/03/28 02:49:39;;;;;;;5.47;3.13;;;8.50;99.90;;;;;;5034455;28;20694;-62
2024/03/28 02:52:05;;;;;;;3.90;3.13;;;8.50;99.90;;;;;;5034479;28;20432;-62
2024/03/28 02:54:31;;;;;;;3.50;3.20;;;8.50;99.90;;;;;;5034805;28;20467;-62
2024/03/28 02:57:02;;;;;;;3.90;3.20;;;8.60;99.90;;;;;;5066579;28;20477;-62
2024/03/28 02:59:28;;;;;;;3.40;3.10;;;8.60;99.90;;;;;;5034769;28;20439;-62
2024/03/28 03:01:53;;;;;;;3.10;2.80;;;8.60;99.90;;;;;;5035358;28;20421;-62
2024/03/28 03:04:19;;;;;;;4.67;3.40;;;8.60;99.90;;;;;;5033929;28;20448;-62
2024/03/28 03:06:45;;;;;;;6.03;2.80;;;8.50;99.90;;;;;;5035290;28;20193;-62
2024/03/28 03:09:10;;;;;;;3.40;3.10;;;8.50;99.90;;;;;;5035873;28;20182;-61
2024/03/28 03:11:36;;;;;;;3.83;3.07;;;8.50;99.90;;;;;;5038524;28;20222;-62
2024/03/28 03:14:02;;;;;;;4.60;3.50;;;8.50;99.90;;;;;;5038472;28;20209;-61
2024/03/28 03:16:27;;;;;;;3.30;3.00;;;8.50;99.90;;;;;;5038660;28;20210;-62
2024/03/28 03:18:53;;;;;;;3.80;3.07;;;8.50;99.90;;;;;;5039509;28;20191;-62
2024/03/28 03:21:19;;;;;;;3.63;3.23;;;8.50;99.90;;;;;;5037931;28;20181;-62
2024/03/28 03:24:00;;;;;;;3.53;3.10;;;8.50;99.90;;;;;;5039244;28;20197;-62
2024/03/28 03:26:31;;;;;;;3.80;3.40;;;8.50;99.90;;;;;;5038520;28;20428;-62
2024/03/28 03:34:35;;;;;;;3.50;3.10;;;8.50;99.90;;;;;;5038881;28;20823;-62
2024/03/28 03:37:33;;;;;;;3.03;2.83;;;8.50;99.90;;;;;;5037116;28;20443;-62
2024/03/28 03:39:59;;;;;;;4.10;3.30;;;8.50;99.90;;;;;;5037422;28;20435;-61
2024/03/28 03:42:25;;;;;;;3.63;2.90;;;8.50;99.90;;;;;;5038911;28;20455;-62
2024/03/28 03:44:51;;;;;;;4.00;3.23;;;8.50;99.90;;;;;;5038905;28;20412;-61
2024/03/28 03:47:17;;;;;;;3.53;3.03;;;8.50;99.90;;;;;;5037855;28;20961;-62
2024/03/28 03:49:45;;;;;;;4.60;3.10;;;8.40;99.90;;;;;;5038633;28;20177;-62
2024/03/28 03:52:11;;;;;;;3.80;3.50;;;8.40;99.90;;;;;;5038264;28;20224;-62
2024/03/28 03:54:40;;;;;;;4.07;3.70;;;8.40;99.90;;;;;;5036624;28;20479;-61
2024/03/28 03:57:06;;;;;;;4.30;3.53;;;8.40;99.90;;;;;;5037145;28;20453;-62
2024/03/28 03:59:33;;;;;;;3.83;3.47;;;8.40;99.90;;;;;;5038227;28;20466;-62
2024/03/28 04:01:58;;;;;;;3.83;3.20;;;8.40;99.90;;;;;;5037728;28;20181;-61
2024/03/28 04:04:24;;;;;;;3.87;3.50;;;8.40;99.90;;;;;;5038326;28;20422;-62
2024/03/28 04:06:50;;;;;;;3.87;3.47;;;8.40;99.90;;;;;;5038253;28;20274;-62
2024/03/28 04:09:16;;;;;;;5.40;3.73;;;8.40;99.90;;;;;;5038143;28;20229;-62
2024/03/28 04:11:42;;;;;;;4.53;3.90;;;8.40;99.90;;;;;;5037584;28;20580;-62
2024/03/28 04:14:07;;;;;;;5.63;3.50;;;8.40;99.90;;;;;;5037310;28;20993;-62
2024/03/28 04:16:33;;;;;;;4.17;3.77;;;8.40;99.90;;;;;;5038105;28;20436;-62
2024/03/28 04:18:59;;;;;;;4.57;3.97;;;8.40;99.90;;;;;;5036767;28;20278;-62
2024/03/28 04:21:29;;;;;;;4.90;4.40;;;8.30;99.90;;;;;;5038165;28;20229;-62
2024/03/28 04:23:57;;;;;;;5.07;4.10;;;8.30;99.90;;;;;;5037443;28;20178;-62
2024/03/28 04:26:23;;;;;;;6.57;4.13;;;8.30;99.90;;;;;;5037883;28;20478;-61
2024/03/28 04:28:49;;;;;;;4.57;4.03;;;8.20;99.90;;;;;;5037770;28;20503;-60
2024/03/28 04:31:15;;;;;;;5.40;3.90;;;8.30;99.90;;;;;;5037445;28;20433;-62
2024/03/28 04:33:41;;;;;;;5.10;4.60;;;8.20;99.90;;;;;;5037705;28;20491;-61
2024/03/28 04:36:07;;;;;;;4.60;3.50;;;8.20;99.90;;;;;;5036651;28;20923;-61
2024/03/28 04:38:34;;;;;;;4.07;3.60;;;8.20;99.90;;;;;;5037996;28;20451;-62
2024/03/28 04:41:00;;;;;;;4.73;4.13;;;8.20;99.90;;;;;;5036930;28;20324;-61
2024/03/28 04:43:26;;;;;;;4.30;3.90;;;8.20;99.90;;;;;;5038321;28;22054;-62
2024/03/28 04:45:52;;;;;;;5.20;4.67;;;8.20;99.90;;;;;;5036948;28;20186;-61
2024/03/28 04:48:17;;;;;;;5.27;4.10;;;8.20;99.90;;;;;;5037505;28;20174;-61
2024/03/28 04:50:45;;;;;;;4.80;4.30;;;8.20;99.90;;;;;;5037928;28;20493;-61
2024/03/28 04:53:10;;;;;;;8.43;4.27;;;8.20;99.90;;;;;;5036941;28;20561;-62
2024/03/28 04:55:36;;;;;;;4.17;3.77;;;8.10;99.90;;;;;;5037442;28;20486;-62
2024/03/28 04:58:01;;;;;;;4.90;4.17;;;8.10;99.90;;;;;;5036893;28;20678;-61
2024/03/28 05:00:27;;;;;;;5.17;4.27;;;8.10;99.90;;;;;;5037390;28;20186;-62
2024/03/28 05:02:53;;;;;;;5.10;4.37;;;8.10;99.90;;;;;;5037150;28;20205;-62
2024/03/28 05:05:19;;;;;;;6.03;3.93;;;8.10;99.90;;;;;;5037303;28;20186;-62
2024/03/28 05:07:44;;;;;;;6.40;4.90;;;8.10;99.90;;;;;;5037821;28;20198;-62
2024/03/28 05:10:10;;;;;;;6.60;4.30;;;8.10;99.90;;;;;;5036675;28;20557;-62
2024/03/28 05:12:36;;;;;;;5.40;4.90;;;8.10;99.90;;;;;;5036931;28;20190;-62
2024/03/28 05:15:01;;;;;;;7.17;5.10;;;8.10;99.90;;;;;;5036174;28;20189;-62
2024/03/28 05:17:27;;;;;;;7.20;4.60;;;8.00;99.90;;;;;;5037253;28;20522;-62
2024/03/28 05:19:53;;;;;;;5.43;4.23;;;8.00;99.90;;;;;;5037210;28;20231;-61
2024/03/28 05:22:19;;;;;;;6.60;4.40;;;8.00;99.90;;;;;;5037068;28;20245;-62
2024/03/28 05:24:45;;;;;;;5.67;4.30;;;8.00;99.90;;;;;;5037139;28;20198;-61
2024/03/28 05:27:13;;;;;;;6.30;4.63;;;8.00;99.90;;;;;;5036861;28;20182;-62
2024/03/28 05:29:41;;;;;;;4.90;4.20;;;8.00;99.90;;;;;;5037306;28;20190;-61
2024/03/28 05:32:09;;;;;;;5.53;4.10;;;7.90;99.90;;;;;;5034243;28;20444;-62
2024/03/28 05:34:35;;;;;;;6.73;4.80;;;7.90;99.90;;;;;;5037446;28;20471;-62
2024/03/28 05:37:00;;;;;;;5.67;4.57;;;7.90;99.90;;;;;;5035865;28;20428;-62
2024/03/28 05:39:27;;;;;;;5.10;4.47;;;7.90;99.90;;;;;;5037196;28;20444;-62
2024/03/28 05:41:53;;;;;;;6.10;5.03;;;7.90;99.90;;;;;;5035576;28;20678;-61
2024/03/28 05:44:19;;;;;;;7.93;4.77;;;7.90;99.90;;;;;;5033191;28;20441;-62
2024/03/28 05:46:45;;;;;;;4.60;4.10;;;7.90;99.90;;;;;;5035946;28;20433;-60
2024/03/28 05:49:10;;;;;;;6.07;4.80;;;7.90;99.90;;;;;;5036289;28;20705;-61
2024/03/28 05:51:36;;;;;;;6.30;5.20;;;7.90;99.90;;;;;;5036435;28;20220;-61
2024/03/28 05:54:02;;;;;;;7.80;5.67;;;7.90;99.90;;;;;;5036066;28;20565;-60
2024/03/28 05:56:27;;;;;;;5.57;4.80;;;7.90;99.90;;;;;;5035704;28;20766;-61
2024/03/28 05:58:53;;;;;;;5.10;4.60;;;7.90;99.90;;;;;;5036089;28;20182;-61
2024/03/28 06:01:19;;;;;;;6.20;4.63;;;8.00;99.90;;;;;;5036817;28;20178;-61
2024/03/28 06:03:44;;;;;;;5.20;4.47;;;8.00;99.90;;;;;;5036890;28;20177;-61
2024/03/28 06:06:10;;;;;;;5.23;4.60;;;8.10;99.90;;;;;;5036459;28;20205;-61
2024/03/28 06:08:36;;;;;;;5.23;4.20;;;8.10;99.90;;;;;;5037010;28;20434;-61
2024/03/28 06:11:04;;;;;;;5.70;4.70;;;8.20;99.90;;;;;;5035838;28;20288;-61
2024/03/28 06:13:33;;;;;;;4.40;4.00;;;8.20;99.90;;;;;;5036571;28;20467;-61
2024/03/28 06:15:59;;;;;;;4.70;4.00;;;8.30;99.90;;;;;;5035235;28;20793;-61
2024/03/28 06:18:32;;;;;;;5.27;4.00;;;8.40;99.90;;;;;;5035316;28;21033;-61
2024/03/28 06:21:03;;;;;;;4.73;4.23;;;8.40;99.90;;;;;;5034079;28;20930;-61
2024/03/28 06:23:29;;;;;;;4.37;3.77;;;8.50;99.90;;;;;;5035643;28;20432;-61
2024/03/28 06:25:55;;;;;;;5.13;4.03;;;8.60;99.90;;;;;;5034394;28;20529;-60
2024/03/28 06:28:21;;;;;;;4.93;4.27;;;8.60;99.90;;;;;;5034950;28;20959;-61
2024/03/28 06:30:52;;;;;;;4.53;3.90;;;8.70;99.90;;;;;;5035406;28;20441;-60
2024/03/28 06:33:21;;;;;;;4.70;3.83;;;8.80;99.90;;;;;;5037267;28;20552;-61
2024/03/28 06:35:47;;;;;;;4.40;3.80;;;8.80;99.90;;;;;;5065998;28;20475;-61
2024/03/28 06:38:13;;;;;;;4.37;3.57;;;8.90;99.90;;;;;;5034408;28;20433;-61
2024/03/28 06:40:39;;;;;;;3.23;2.93;;;9.00;99.90;;;;;;5034867;28;20444;-60
2024/03/28 06:43:05;;;;;;;3.40;3.10;;;9.00;99.90;;;;;;5034366;28;20194;-61
2024/03/28 06:45:31;;;;;;;3.80;2.97;;;9.10;99.90;;;;;;5032077;28;20938;-61
2024/03/28 06:47:57;;;;;;;4.27;3.30;;;9.10;99.90;;;;;;5033731;28;21044;-61
2024/03/28 06:50:23;;;;;;;3.87;3.10;;;9.20;99.90;;;;;;5035208;28;20429;-61
2024/03/28 06:52:52;;;;;;;2.97;2.60;;;9.30;99.90;;;;;;5036340;28;20194;-62
2024/03/28 06:55:18;;;;;;;3.47;2.67;;;9.30;99.90;;;;;;5034974;28;20203;-61
2024/03/28 06:57:44;;;;;;;5.17;2.57;;;9.40;99.90;;;;;;5033117;28;20462;-62
2024/03/28 07:00:10;;;;;;;3.83;2.73;;;9.40;99.90;;;;;;5035272;28;20420;-62
2024/03/28 07:02:36;;;;;;;3.60;2.70;;;9.50;99.90;;;;;;5035193;28;20193;-62
2024/03/28 07:05:02;;;;;;;3.27;2.97;;;9.60;99.90;;;;;;5034673;28;20943;-60
2024/03/28 07:07:29;;;;;;;3.97;2.77;;;9.60;99.90;;;;;;5034936;28;20448;-61
2024/03/28 07:09:58;;;;;;;2.87;2.67;;;9.70;99.90;;;;;;5035260;28;20436;-62
2024/03/28 07:12:24;;;;;;;3.63;3.13;;;9.70;99.90;;;;;;5035487;28;20495;-61
2024/03/28 07:14:50;;;;;;;2.47;2.27;;;9.80;99.90;;;;;;5034350;28;20481;-61
2024/03/28 07:17:16;;;;;;;3.10;1.83;;;9.80;99.90;;;;;;5035191;28;20428;-61
2024/03/28 07:19:42;;;;;;;2.50;2.00;;;9.80;99.90;;;;;;5033982;28;20493;-61
2024/03/28 07:22:10;;;;;;;2.43;2.00;;;9.90;99.90;;;;;;5033401;28;20197;-62
2024/03/28 07:24:36;;;;;;;2.13;2.03;;;10.00;99.90;;;;;;5035553;28;20251;-61
2024/03/28 07:27:02;;;;;;;2.90;2.10;;;10.00;99.90;;;;;;5035680;28;20437;-62
2024/03/28 07:29:29;;;;;;;2.40;1.57;;;10.00;99.90;;;;;;5034889;28;20754;-61
2024/03/28 07:31:55;;;;;;;2.30;2.10;;;10.00;99.90;;;;;;5033406;28;20440;-61
2024/03/28 07:34:20;;;;;;;1.73;1.63;;;10.00;99.90;;;;;;5035096;28;21123;-62
2024/03/28 07:36:46;;;;;;;3.20;2.30;;;10.00;99.90;;;;;;5033590;28;20436;-61
2024/03/28 07:39:15;;;;;;;2.10;1.90;;;10.00;99.90;;;;;;5034505;28;20599;-62
2024/03/28 07:41:41;;;;;;;2.40;1.90;;;10.00;99.90;;;;;;5033403;28;20428;-62
2024/03/28 07:44:07;;;;;;;2.10;1.80;;;10.00;99.90;;;;;;5034102;28;20789;-61
2024/03/28 07:46:33;;;;;;;2.20;2.00;;;10.00;99.90;;;;;;5033715;28;20459;-61
2024/03/28 07:48:59;;;;;;;1.80;1.70;;;10.00;99.90;;;;;;5033821;28;20424;-61
2024/03/28 07:51:24;;;;;;;2.23;1.77;;;10.00;99.90;;;;;;5034121;28;20444;-61
2024/03/28 07:53:52;;;;;;;2.10;1.90;;;10.00;99.90;;;;;;5034119;28;20509;-62
2024/03/28 07:56:19;;;;;;;2.10;1.70;;;10.00;99.90;;;;;;5037943;28;20194;-62
2024/03/28 07:58:45;;;;;;;1.87;1.77;;;10.00;99.90;;;;;;5037013;28;20475;-62
2024/03/28 08:01:11;;;;;;;1.60;1.50;;;9.90;99.90;;;;;;5038108;28;20439;-61
2024/03/28 08:03:37;;;;;;;1.73;1.50;;;9.90;99.90;;;;;;5037519;28;21262;-61
2024/03/28 08:06:04;;;;;;;1.50;1.40;;;9.90;99.90;;;;;;5037559;28;20194;-62
2024/03/28 08:08:33;;;;;;;1.93;1.70;;;9.90;99.90;;;;;;5038077;28;20467;-62
2024/03/28 08:10:59;;;;;;;3.00;1.70;;;9.90;99.90;;;;;;5037368;28;20521;-61
2024/03/28 08:13:28;;;;;;;1.53;1.43;;;9.80;99.90;;;;;;5037652;28;20479;-62
2024/03/28 08:15:54;;;;;;;2.20;1.53;;;9.70;99.90;;;;;;5036771;28;20428;-61
2024/03/28 08:18:20;;;;;;;1.70;1.50;;;9.80;99.90;;;;;;5037094;28;20439;-62
2024/03/28 08:20:45;;;;;;;2.10;1.40;;;9.80;99.90;;;;;;5038411;28;20197;-62
2024/03/28 08:23:12;;;;;;;1.87;1.67;;;9.70;99.90;;;;;;5040337;28;20182;-62
2024/03/28 08:25:38;;;;;;;2.40;1.70;;;9.70;99.90;;;;;;5037715;28;20183;-61
2024/03/28 08:28:06;;;;;;;1.63;1.53;;;9.60;99.90;;;;;;5036613;28;20444;-62
2024/03/28 08:30:32;;;;;;;2.00;1.60;;;9.60;99.90;;;;;;5036915;28;20507;-60
2024/03/28 08:32:58;;;;;;;1.60;1.50;;;9.60;99.90;;;;;;5036537;28;20862;-62
2024/03/28 08:35:24;;;;;;;2.47;2.10;;;9.50;99.90;;;;;;5037607;28;20198;-62
2024/03/28 08:37:50;;;;;;;2.00;1.70;;;9.50;99.90;;;;;;5036672;28;20589;-61
2024/03/28 08:40:15;;;;;;;2.00;1.73;;;9.40;99.90;;;;;;5036983;28;20186;-61
2024/03/28 08:42:44;;;;;;;2.13;1.33;;;9.40;99.90;;;;;;5036605;28;20437;-61
2024/03/28 08:45:12;;;;;;;2.23;1.80;;;9.30;99.90;;;;;;5036965;28;20319;-61
2024/03/28 08:47:40;;;;;;;2.70;1.40;;;9.20;99.90;;;;;;5041090;28;20444;-62
2024/03/28 08:50:06;;;;;;;4.60;1.47;;;9.20;99.90;;;;;;5036529;28;20437;-62
2024/03/28 08:52:33;;;;;;;1.50;1.40;;;9.10;99.90;;;;;;5037266;28;20429;-61
2024/03/28 08:54:59;;;;;;;2.40;1.50;;;9.00;99.90;;;;;;5036355;28;20677;-62
2024/03/28 08:57:25;;;;;;;1.50;1.40;;;9.00;99.90;;;;;;5036642;28;20437;-62
2024/03/28 08:59:51;;;;;;;2.03;1.63;;;9.00;99.90;;;;;;5036342;28;20437;-62
2024/03/28 09:02:20;;;;;;;1.60;1.50;;;9.00;99.90;;;;;;5036988;28;20430;-62
2024/03/28 09:04:46;;;;;;;1.70;1.40;;;9.00;99.90;;;;;;5036425;28;20425;-62
2024/03/28 09:07:14;;;;;;;1.60;1.50;;;9.00;99.90;;;;;;5036121;28;20445;-62
2024/03/28 09:09:40;;;;;;;1.73;1.50;;;9.00;99.90;;;;;;5035553;28;20434;-62
2024/03/28 09:12:07;;;;;;;2.23;1.80;;;9.00;99.90;;;;;;5036324;28;20425;-61
2024/03/28 09:14:34;;;;;;;2.10;1.30;;;9.00;99.90;;;;;;5036245;28;21017;-61
2024/03/28 09:17:00;;;;;;;2.00;1.40;;;8.90;99.90;;;;;;5037289;28;20432;-62
2024/03/28 09:19:27;;;;;;;2.50;1.47;;;8.90;99.90;;;;;;5037655;28;21000;-61
2024/03/28 09:21:53;;;;;;;2.10;1.53;;;8.80;99.90;;;;;;5036901;28;20659;-61
2024/03/28 09:24:19;;;;;;;1.93;1.60;;;8.80;99.90;;;;;;5037339;28;20417;-61
2024/03/28 09:26:46;;;;;;;1.60;1.50;;;8.80;99.90;;;;;;5036472;28;20177;-60
2024/03/28 09:29:13;;;;;;;1.67;1.57;;;8.70;99.90;;;;;;5038001;28;20196;-61
2024/03/28 09:31:39;;;;;;;1.43;1.33;;;8.70;99.90;;;;;;5035536;28;20433;-61
2024/03/28 09:34:05;;;;;;;1.53;1.10;;;8.70;99.90;;;;;;5039213;28;20468;-62
2024/03/28 09:36:31;;;;;;;2.20;1.57;;;8.60;99.90;;;;;;5036082;28;20294;-61
2024/03/28 09:38:57;;;;;;;1.00;0.93;;;8.70;99.90;;;;;;5036581;28;21252;-61
2024/03/28 09:41:27;;;;;;;3.27;1.57;;;8.70;99.90;;;;;;5034881;28;20201;-61
2024/03/28 09:44:10;;;;;;;1.37;1.27;;;8.70;99.90;;;;;;5034614;28;20189;-61
2024/03/28 09:46:41;;;;;;;1.47;1.37;;;8.70;99.90;;;;;;5032553;28;20432;-60
2024/03/28 09:49:11;;;;;;;1.30;1.20;;;8.70;99.90;;;;;;5035312;28;21185;-62
2024/03/28 09:51:39;;;;;;;2.63;1.40;;;8.70;99.90;;;;;;5034110;28;20773;-61
2024/03/28 09:54:06;;;;;;;2.13;1.47;;;8.80;99.90;;;;;;5035917;28;20473;-62
2024/03/28 09:56:33;;;;;;;2.63;1.30;;;8.80;99.90;;;;;;5034205;28;20478;-62
2024/03/28 09:58:59;;;;;;;1.30;1.10;;;8.80;99.90;;;;;;5035186;28;20420;-61
2024/03/28 10:01:28;;;;;;;1.33;1.23;;;8.90;99.90;;;;;;5035872;28;20985;-61
2024/03/28 10:04:03;;;;;;;1.97;1.77;;;8.90;99.90;;;;;;5018343;28;21270;-62
2024/03/28 10:06:29;;;;;;;2.00;1.57;;;8.90;99.90;;;;;;5035176;28;22302;-61
2024/03/28 10:08:55;;;;;;;1.53;1.43;;;9.00;99.90;;;;;;5035077;28;20432;-61
2024/03/28 10:11:21;;;;;;;2.10;1.60;;;9.00;99.90;;;;;;5034491;28;20441;-61
2024/03/28 10:13:47;;;;;;;1.83;1.70;;;9.00;99.90;;;;;;5035345;28;20476;-62
2024/03/28 10:16:15;;;;;;;1.90;1.60;;;9.00;99.90;;;;;;5034565;28;20234;-61
2024/03/28 10:18:42;;;;;;;1.67;1.57;;;9.10;99.90;;;;;;5034820;28;20435;-62
2024/03/28 10:21:11;;;;;;;1.73;1.63;;;9.10;99.90;;;;;;5034385;28;20432;-61
2024/03/28 10:23:39;;;;;;;2.10;1.67;;;9.10;99.90;;;;;;5034912;28;20433;-62
2024/03/28 10:26:09;;;;;;;1.63;1.53;;;9.10;99.90;;;;;;5032894;28;20425;-61
2024/03/28 10:28:36;;;;;;;2.00;1.67;;;9.00;99.90;;;;;;5034132;28;20452;-61
2024/03/28 10:31:04;;;;;;;2.33;1.90;;;8.90;99.90;;;;;;5034157;28;20439;-61
2024/03/28 10:33:35;;;;;;;1.60;1.50;;;8.90;99.90;;;;;;5034878;28;20555;-61
2024/03/28 10:36:03;;;;;;;1.80;1.40;;;9.00;99.90;;;;;;5034774;28;20436;-62
2024/03/28 10:38:29;;;;;;;2.57;1.70;;;9.00;99.90;;;;;;5034971;28;20864;-61
2024/03/28 10:40:57;;;;;;;2.07;1.70;;;9.00;99.90;;;;;;5034740;28;20423;-62
2024/03/28 10:43:24;;;;;;;1.70;1.60;;;8.90;99.90;;;;;;5034655;28;20190;-61
2024/03/28 10:46:05;;;;;;;2.13;1.93;;;9.00;99.90;;;;;;5035115;28;20567;-61
2024/03/28 10:48:32;;;;;;;2.03;1.83;;;9.00;99.90;;;;;;5034929;28;20764;-61
2024/03/28 10:51:17;;;;;;;2.27;2.07;;;9.00;99.90;;;;;;5034460;28;20436;-61
2024/03/28 10:53:57;;;;;;;2.00;1.90;;;9.00;99.90;;;;;;5035073;28;21163;-61
2024/03/28 10:56:24;;;;;;;2.60;2.13;;;8.90;99.90;;;;;;5034250;28;20437;-61
2024/03/28 10:58:51;;;;;;;3.43;1.87;;;8.80;99.90;;;;;;5034317;28;20495;-61
2024/03/28 11:01:18;;;;;;;5.83;3.93;;;8.70;99.90;;;;;;5034216;28;21005;-61
2024/03/28 11:03:45;;;;;;;3.60;3.10;;;8.60;99.90;;;;;;5035115;28;20906;-61
2024/03/28 11:06:13;;;;;;;2.43;2.23;;;8.60;99.90;;;;;;5033999;28;20433;-61
2024/03/28 11:08:40;;;;;;;1.93;1.30;;;8.60;99.90;;;;;;5034946;28;21256;-61
2024/03/28 11:11:06;;;;;;;1.27;1.17;;;8.50;99.90;;;;;;5033702;28;20433;-61
2024/03/28 11:13:32;;;;;;;2.80;2.13;;;8.50;99.90;;;;;;5034661;28;20479;-61
2024/03/28 11:16:03;;;;;;;1.90;1.50;;;8.40;99.90;;;;;;5034301;28;20420;-62
2024/03/28 11:18:32;;;;;;;1.10;1.00;;;8.40;99.90;;;;;;5034669;28;20189;-61
2024/03/28 11:20:59;;;;;;;1.87;1.77;;;8.30;99.90;;;;;;5033827;28;20424;-62
2024/03/28 11:23:25;;;;;;;0.70;0.70;;;8.40;99.90;;;;;;5035065;28;20544;-62
2024/03/28 11:26:10;;;;;;;3.83;0.90;;;8.50;99.90;;;;;;5034514;28;20429;-62
2024/03/28 11:28:45;;;;;;;1.27;0.90;;;8.50;99.90;;;;;;5034834;28;20432;-62
2024/03/28 11:31:13;;;;;;;1.97;1.10;;;8.70;99.90;;;;;;5037378;28;20945;-62
2024/03/28 11:33:42;;;;;;;2.03;1.10;;;8.70;99.90;;;;;;5038156;28;20508;-62
2024/03/28 11:36:08;;;;;;;1.20;1.00;;;8.80;99.90;;;;;;5037405;28;20416;-62
2024/03/28 11:38:36;;;;;;;1.53;1.30;;;8.90;99.90;;;;;;5038473;28;20440;-62
2024/03/28 11:41:03;;;;;;;1.47;1.17;;;8.90;99.90;;;;;;5037951;28;20492;-62
2024/03/28 11:43:31;;;;;;;1.30;1.20;;;8.90;99.90;;;;;;5038552;28;20440;-62
2024/03/28 11:45:58;;;;;;;1.37;1.20;;;9.00;99.90;;;;;;5037604;28;20427;-62
2024/03/28 11:48:25;;;;;;;1.60;1.10;;;9.00;99.90;;;;;;5038316;28;20429;-62
2024/03/28 11:50:52;;;;;;;1.50;1.30;;;9.10;99.90;;;;;;5038090;28;20425;-62
2024/03/28 11:53:18;;;;;;;2.73;1.40;;;9.10;99.90;;;;;;5038347;28;20829;-62
2024/03/28 11:55:46;;;;;;;2.50;1.63;;;9.20;99.90;;;;;;5038094;28;20489;-62
2024/03/28 11:58:16;;;;;;;2.07;1.30;;;9.30;99.90;;;;;;5037226;28;20428;-62
2024/03/28 12:00:42;;;;;;;1.60;1.50;;;9.40;99.90;;;;;;5038196;28;20849;-62
2024/03/28 12:03:08;;;;;;;1.70;1.60;;;9.60;99.90;;;;;;5037263;28;20456;-62
2024/03/28 12:05:34;;;;;;;2.17;1.60;;;9.70;99.90;;;;;;5037723;28;20497;-62
2024/03/28 12:08:00;;;;;;;1.60;1.50;;;9.90;99.90;;;;;;5037943;28;20440;-62
2024/03/28 12:10:25;;;;;;;1.50;1.40;;;10.00;99.90;;;;;;5038197;28;20707;-62
2024/03/28 12:12:51;;;;;;;3.10;1.57;;;10.10;99.90;;;;;;5037617;28;20764;-62
2024/03/28 12:15:17;;;;;;;1.67;1.57;;;10.30;99.90;;;;;;5037558;28;20220;-62
2024/03/28 12:17:43;;;;;;;2.40;1.40;;;10.40;99.90;;;;;;5037955;28;20239;-62
2024/03/28 12:20:10;;;;;;;1.57;1.47;;;10.50;99.90;;;;;;5036250;28;21430;-62
2024/03/28 12:22:37;;;;;;;2.70;1.90;;;10.60;99.90;;;;;;5037468;28;20436;-61
2024/03/28 12:25:10;;;;;;;18.07;12.67;;;10.60;99.90;;;;;;5036636;28;20424;-62
2024/03/28 12:27:37;;;;;;;7.87;5.73;;;10.60;99.90;;;;;;5037369;28;20432;-62
2024/03/28 12:30:11;;;;;;;6.00;5.30;;;10.70;99.90;;;;;;5036296;28;20447;-62
2024/03/28 12:32:41;;;;;;;5.70;5.10;;;10.80;99.90;;;;;;5036493;28;20479;-61
2024/03/28 12:35:07;;;;;;;4.70;4.30;;;10.90;99.90;;;;;;5036357;28;20461;-62
2024/03/28 12:37:34;;;;;;;2.03;1.83;;;11.10;99.90;;;;;;5036664;28;20428;-62
2024/03/28 12:40:09;;;;;;;1.47;1.17;;;11.10;99.90;;;;;;5035518;28;20460;-62
2024/03/28 12:42:36;;;;;;;2.27;1.57;;;11.10;99.90;;;;;;5037124;28;20426;-62
2024/03/28 12:45:22;;;;;;;3.63;1.43;;;11.20;99.90;;;;;;5035824;28;20440;-62
2024/03/28 12:47:50;;;;;;;1.40;1.30;;;11.20;99.90;;;;;;5035959;28;20991;-62
2024/03/28 12:50:18;;;;;;;1.30;1.20;;;11.20;99.90;;;;;;5037009;28;20548;-62
2024/03/28 12:52:48;;;;;;;1.77;1.50;;;11.20;99.90;;;;;;5036143;28;20999;-62
2024/03/28 12:55:14;;;;;;;2.37;1.47;;;11.40;99.90;;;;;;5036833;28;21277;-62
2024/03/28 12:57:40;;;;;;;1.70;1.60;;;11.70;99.90;;;;;;5035325;28;20429;-61
2024/03/28 13:00:11;;;;;;;1.80;1.00;;;11.80;99.90;;;;;;5035934;28;20425;-62